Time;durP1;ratioP1;P1;durP2;ratioP2;P2;SDS_P1;SDS_P2;PMS_P1;PMS_P2;Temp;Humidity;BMP_temperature;BMP_pressure;BME280_temperature;BME280_humidity;BME280_pressure;Samples;Min_cycle;Max_cycle;Signal;HPM_P1;HPM_P2
2021/09/24 00:02:25;;;;;;;13.63;3.22;;;;;;;;;;5093841;28;20480;-68
2021/09/24 00:05:11;;;;;;;14.40;2.80;;;;;;;;;;5091767;28;20083;-69
2021/09/24 00:07:56;;;;;;;16.67;3.15;;;;;;;;;;5090402;28;20087;-69
2021/09/24 00:10:41;;;;;;;23.15;3.92;;;;;;;;;;5091729;28;20048;-68
2021/09/24 00:13:27;;;;;;;14.25;3.10;;;;;;;;;;5090133;28;20048;-68
2021/09/24 00:16:12;;;;;;;16.95;2.65;;;;;;;;;;5056574;28;20057;-68
2021/09/24 00:18:57;;;;;;;24.60;3.85;;;;;;;;;;5055924;28;20053;-69
2021/09/24 00:21:43;;;;;;;17.90;2.63;;;;;;;;;;5053216;28;20076;-68
2021/09/24 00:24:28;;;;;;;21.77;3.55;;;;;;;;;;5062921;28;20044;-68
2021/09/24 00:27:13;;;;;;;15.77;3.63;;;;;;;;;;5076146;28;20371;-69
2021/09/24 00:29:58;;;;;;;13.25;2.60;;;;;;;;;;5095650;28;20056;-69
2021/09/24 00:32:44;;;;;;;18.92;3.50;;;;;;;;;;5078007;28;20442;-68
2021/09/24 00:35:29;;;;;;;13.30;2.92;;;;;;;;;;5095163;28;20048;-68
2021/09/24 00:38:14;;;;;;;13.00;4.32;;;;;;;;;;5096383;28;20059;-68
2021/09/24 00:40:59;;;;;;;13.07;2.65;;;;;;;;;;5077133;28;20052;-68
2021/09/24 00:43:44;;;;;;;11.55;2.28;;;;;;;;;;5095017;28;20055;-68
2021/09/24 00:46:29;;;;;;;23.58;3.92;;;;;;;;;;5093823;28;20048;-68
2021/09/24 00:49:15;;;;;;;10.55;3.65;;;;;;;;;;5095251;28;20044;-68
2021/09/24 00:52:00;;;;;;;17.48;3.88;;;;;;;;;;5095072;28;20048;-68
2021/09/24 00:54:47;;;;;;;15.57;3.97;;;;;;;;;;5062243;28;20387;-69
2021/09/24 00:57:32;;;;;;;19.13;3.40;;;;;;;;;;5023445;28;20056;-68
2021/09/24 01:00:18;;;;;;;18.13;3.70;;;;;;;;;;5039816;28;20088;-68
2021/09/24 01:03:03;;;;;;;15.00;3.03;;;;;;;;;;5054635;28;20053;-69
2021/09/24 01:05:49;;;;;;;15.70;4.07;;;;;;;;;;5064289;28;20541;-69
2021/09/24 01:08:34;;;;;;;13.65;4.20;;;;;;;;;;5079709;28;20059;-68
2021/09/24 01:11:21;;;;;;;12.75;3.10;;;;;;;;;;5094621;28;20048;-68
2021/09/24 01:14:07;;;;;;;18.63;4.70;;;;;;;;;;5076472;28;20056;-68
2021/09/24 01:16:52;;;;;;;18.95;4.88;;;;;;;;;;5079652;28;20460;-68
2021/09/24 01:19:37;;;;;;;16.42;4.07;;;;;;;;;;5095455;28;20052;-67
2021/09/24 01:22:22;;;;;;;12.90;2.80;;;;;;;;;;5094912;28;20060;-69
2021/09/24 01:25:08;;;;;;;18.90;3.53;;;;;;;;;;5094061;28;20502;-68
2021/09/24 01:27:54;;;;;;;17.10;3.53;;;;;;;;;;5076299;28;20052;-68
2021/09/24 01:30:39;;;;;;;15.23;4.85;;;;;;;;;;5078246;28;20099;-69
2021/09/24 01:33:24;;;;;;;9.73;2.85;;;;;;;;;;5096274;28;20123;-68
2021/09/24 01:36:09;;;;;;;12.50;3.42;;;;;;;;;;5095846;28;20047;-69
2021/09/24 01:38:54;;;;;;;13.10;3.20;;;;;;;;;;5053649;28;20045;-69
2021/09/24 01:41:40;;;;;;;22.42;4.80;;;;;;;;;;5054432;28;20057;-68
2021/09/24 01:44:25;;;;;;;13.13;4.28;;;;;;;;;;5053864;28;20053;-67
2021/09/24 01:47:10;;;;;;;13.57;3.58;;;;;;;;;;5031125;28;20060;-68
2021/09/24 01:49:55;;;;;;;14.43;4.43;;;;;;;;;;5094105;28;20052;-67
2021/09/24 01:52:41;;;;;;;12.98;2.83;;;;;;;;;;5075582;28;20056;-67
2021/09/24 01:55:26;;;;;;;14.40;4.18;;;;;;;;;;5093771;28;20063;-68
2021/09/24 01:58:11;;;;;;;19.63;4.40;;;;;;;;;;5090883;28;20501;-68
2021/09/24 02:00:56;;;;;;;15.95;4.00;;;;;;;;;;5093788;28;20134;-68
2021/09/24 02:03:42;;;;;;;14.35;3.38;;;;;;;;;;5093420;28;20534;-68
2021/09/24 02:06:27;;;;;;;19.25;4.47;;;;;;;;;;5093550;28;20087;-68
2021/09/24 02:09:12;;;;;;;10.27;4.40;;;;;;;;;;5091823;28;20048;-68
2021/09/24 02:11:58;;;;;;;14.50;4.50;;;;;;;;;;5095326;28;20166;-68
2021/09/24 02:14:43;;;;;;;14.60;3.80;;;;;;;;;;5096672;28;20048;-68
2021/09/24 02:17:28;;;;;;;19.02;4.45;;;;;;;;;;5093734;28;20056;-68
2021/09/24 02:20:14;;;;;;;12.27;3.03;;;;;;;;;;5093613;28;20052;-69
2021/09/24 02:22:59;;;;;;;15.48;3.88;;;;;;;;;;5093518;28;20129;-68
2021/09/24 02:25:44;;;;;;;13.20;4.07;;;;;;;;;;5093992;28;20060;-68
2021/09/24 02:28:30;;;;;;;19.75;5.75;;;;;;;;;;5073981;28;20051;-69
2021/09/24 02:31:15;;;;;;;15.63;4.35;;;;;;;;;;5094376;28;20058;-68
2021/09/24 02:34:00;;;;;;;21.15;5.63;;;;;;;;;;5094674;28;20048;-69
2021/09/24 02:36:46;;;;;;;13.50;5.53;;;;;;;;;;5094732;28;20040;-68
2021/09/24 02:39:31;;;;;;;13.55;3.72;;;;;;;;;;5093515;28;20052;-69
2021/09/24 02:42:16;;;;;;;15.18;3.35;;;;;;;;;;5067379;28;20495;-67
2021/09/24 02:45:01;;;;;;;11.85;3.42;;;;;;;;;;5072287;28;20105;-68
2021/09/24 02:47:47;;;;;;;14.88;4.00;;;;;;;;;;5072739;28;20049;-69
2021/09/24 02:50:32;;;;;;;12.43;3.85;;;;;;;;;;5085562;28;20052;-68
2021/09/24 02:53:17;;;;;;;15.40;3.65;;;;;;;;;;5092701;28;20491;-69
2021/09/24 02:56:03;;;;;;;16.73;4.78;;;;;;;;;;5092515;28;20056;-69
2021/09/24 02:58:48;;;;;;;17.75;3.70;;;;;;;;;;5091817;28;20048;-69
2021/09/24 03:01:34;;;;;;;13.20;2.60;;;;;;;;;;5093516;28;20051;-68
2021/09/24 03:04:19;;;;;;;11.20;3.38;;;;;;;;;;5091432;28;20048;-69
2021/09/24 03:07:05;;;;;;;11.90;3.17;;;;;;;;;;5074572;28;20044;-67
2021/09/24 03:09:50;;;;;;;14.15;3.30;;;;;;;;;;5090454;28;20044;-68
2021/09/24 03:12:35;;;;;;;8.23;2.40;;;;;;;;;;5074269;28;20052;-67
2021/09/24 03:15:20;;;;;;;11.43;3.17;;;;;;;;;;5088629;28;20048;-68
2021/09/24 03:18:06;;;;;;;15.55;4.07;;;;;;;;;;5092426;28;20123;-68
2021/09/24 03:20:52;;;;;;;10.82;3.53;;;;;;;;;;5072541;28;20052;-69
2021/09/24 03:23:37;;;;;;;11.40;3.33;;;;;;;;;;5092224;28;20056;-69
2021/09/24 03:26:22;;;;;;;9.57;2.78;;;;;;;;;;5092217;28;20505;-69
2021/09/24 03:29:08;;;;;;;10.30;2.92;;;;;;;;;;5092279;28;20444;-69
2021/09/24 03:31:54;;;;;;;13.52;3.05;;;;;;;;;;5075226;28;20505;-69
2021/09/24 03:34:39;;;;;;;10.57;2.90;;;;;;;;;;5093169;28;20056;-68
2021/09/24 03:37:24;;;;;;;10.18;1.95;;;;;;;;;;5093253;28;20052;-68
2021/09/24 03:40:10;;;;;;;7.38;2.38;;;;;;;;;;5093724;28;20118;-68
2021/09/24 03:42:55;;;;;;;10.75;2.80;;;;;;;;;;5074913;28;20056;-68
2021/09/24 03:45:40;;;;;;;12.18;2.97;;;;;;;;;;5091730;28;20657;-69
2021/09/24 03:48:25;;;;;;;11.27;2.60;;;;;;;;;;5073934;28;20132;-68
2021/09/24 03:51:10;;;;;;;8.85;2.20;;;;;;;;;;5090305;28;20056;-69
2021/09/24 03:53:55;;;;;;;12.05;2.63;;;;;;;;;;5073654;28;20487;-67
2021/09/24 03:56:43;;;;;;;10.82;2.20;;;;;;;;;;5076224;28;20130;-68
2021/09/24 03:59:28;;;;;;;16.98;3.58;;;;;;;;;;5095008;28;20127;-69
2021/09/24 04:02:13;;;;;;;10.55;2.60;;;;;;;;;;5078255;28;20494;-68
2021/09/24 04:04:58;;;;;;;13.25;2.65;;;;;;;;;;5095841;28;20044;-68
2021/09/24 04:07:44;;;;;;;9.60;2.15;;;;;;;;;;5095989;28;20056;-68
2021/09/24 04:10:29;;;;;;;6.45;2.10;;;;;;;;;;5095926;28;20063;-68
2021/09/24 04:13:14;;;;;;;10.65;2.50;;;;;;;;;;5095290;28;20498;-69
2021/09/24 04:16:00;;;;;;;9.43;2.25;;;;;;;;;;5097053;28;20044;-68
2021/09/24 04:18:45;;;;;;;10.20;3.08;;;;;;;;;;5078555;28;20052;-68
2021/09/24 04:21:30;;;;;;;7.28;2.70;;;;;;;;;;5098222;28;20052;-68
2021/09/24 04:24:16;;;;;;;17.48;3.53;;;;;;;;;;5095191;28;20083;-68
2021/09/24 04:27:01;;;;;;;10.65;3.70;;;;;;;;;;5096925;28;20052;-69
2021/09/24 04:29:46;;;;;;;14.57;4.05;;;;;;;;;;5077408;28;20063;-68
2021/09/24 04:32:31;;;;;;;9.75;2.33;;;;;;;;;;5076072;28;20051;-68
2021/09/24 04:35:16;;;;;;;9.95;3.47;;;;;;;;;;5079292;28;20079;-68
2021/09/24 04:38:02;;;;;;;11.05;3.05;;;;;;;;;;5080324;28;20048;-68
2021/09/24 04:40:47;;;;;;;10.32;3.22;;;;;;;;;;5093843;28;20418;-67
2021/09/24 04:43:32;;;;;;;15.20;3.90;;;;;;;;;;5054792;28;20064;-68
2021/09/24 04:46:18;;;;;;;12.90;3.50;;;;;;;;;;5036996;28;20061;-69
2021/09/24 04:49:03;;;;;;;12.50;3.95;;;;;;;;;;5054985;28;20064;-68
2021/09/24 04:51:48;;;;;;;12.98;3.53;;;;;;;;;;5065558;28;20047;-68
2021/09/24 04:54:33;;;;;;;10.05;3.25;;;;;;;;;;5097758;28;20052;-68
2021/09/24 04:57:19;;;;;;;11.25;3.63;;;;;;;;;;5098849;28;20048;-69
2021/09/24 05:00:05;;;;;;;15.75;3.53;;;;;;;;;;5095403;28;20048;-68
2021/09/24 05:02:50;;;;;;;16.02;3.20;;;;;;;;;;5091168;28;20040;-68
2021/09/24 05:05:35;;;;;;;12.20;3.60;;;;;;;;;;5095103;28;20052;-69
2021/09/24 05:08:21;;;;;;;13.10;3.83;;;;;;;;;;5100000;28;20056;-68
2021/09/24 05:11:06;;;;;;;11.77;3.60;;;;;;;;;;5078329;28;20060;-69
2021/09/24 05:13:51;;;;;;;14.35;4.55;;;;;;;;;;5091132;28;20048;-69
2021/09/24 05:16:36;;;;;;;10.38;3.35;;;;;;;;;;5076497;28;20045;-68
2021/09/24 05:19:21;;;;;;;15.30;3.70;;;;;;;;;;5073211;28;20041;-68
2021/09/24 05:22:07;;;;;;;18.70;5.00;;;;;;;;;;5056160;28;20045;-69
2021/09/24 05:24:52;;;;;;;15.43;4.97;;;;;;;;;;5077041;28;20461;-68
2021/09/24 05:27:37;;;;;;;15.45;5.35;;;;;;;;;;5054035;28;20049;-68
2021/09/24 05:30:22;;;;;;;13.18;4.90;;;;;;;;;;5072774;28;20052;-68
2021/09/24 05:33:08;;;;;;;17.35;5.78;;;;;;;;;;5054270;28;20053;-68
2021/09/24 05:35:53;;;;;;;15.38;7.07;;;;;;;;;;5071725;28;20565;-68
2021/09/24 05:38:39;;;;;;;12.77;6.03;;;;;;;;;;5129164;22;20409;-68
2021/09/24 05:41:25;;;;;;;16.95;6.97;;;;;;;;;;5074700;28;20043;-67
2021/09/24 05:44:09;;;;;;;16.27;7.03;;;;;;;;;;5065556;28;20135;-67
2021/09/24 05:46:55;;;;;;;19.73;7.82;;;;;;;;;;5092344;28;20052;-68
2021/09/24 05:49:40;;;;;;;22.17;7.57;;;;;;;;;;5114539;28;20144;-67
2021/09/24 05:52:25;;;;;;;15.57;7.53;;;;;;;;;;5109658;28;20427;-69
2021/09/24 05:55:11;;;;;;;15.52;7.95;;;;;;;;;;5114187;28;20048;-68
2021/09/24 05:57:56;;;;;;;14.13;6.93;;;;;;;;;;5114161;28;20557;-68
2021/09/24 06:00:42;;;;;;;19.58;7.30;;;;;;;;;;5108875;28;20040;-67
2021/09/24 06:03:27;;;;;;;15.10;6.57;;;;;;;;;;5114274;28;20047;-68
2021/09/24 06:06:12;;;;;;;16.83;7.10;;;;;;;;;;5114275;28;20413;-68
2021/09/24 06:08:58;;;;;;;15.23;5.88;;;;;;;;;;5113960;28;20059;-68
2021/09/24 06:11:43;;;;;;;17.08;5.57;;;;;;;;;;5112303;28;20051;-68
2021/09/24 06:14:29;;;;;;;9.85;4.82;;;;;;;;;;5093064;28;20131;-68
2021/09/24 06:17:14;;;;;;;18.50;6.13;;;;;;;;;;5090583;28;20044;-67
2021/09/24 06:19:59;;;;;;;11.30;5.85;;;;;;;;;;5091164;28;20071;-69
2021/09/24 06:22:45;;;;;;;12.88;4.78;;;;;;;;;;5091836;28;20127;-68
2021/09/24 06:25:30;;;;;;;14.82;5.35;;;;;;;;;;5092454;28;20048;-68
2021/09/24 06:28:15;;;;;;;15.48;5.93;;;;;;;;;;5093180;28;20052;-68
2021/09/24 06:31:01;;;;;;;11.95;4.38;;;;;;;;;;5092161;28;20056;-68
2021/09/24 06:33:46;;;;;;;14.63;5.90;;;;;;;;;;5083065;28;20040;-68
2021/09/24 06:36:31;;;;;;;11.50;4.18;;;;;;;;;;5074911;28;20052;-67
2021/09/24 06:39:17;;;;;;;14.25;4.75;;;;;;;;;;5093087;28;20048;-69
2021/09/24 06:42:02;;;;;;;14.73;4.60;;;;;;;;;;5054735;28;20052;-68
2021/09/24 06:44:47;;;;;;;11.90;4.88;;;;;;;;;;5072595;28;20089;-68
2021/09/24 06:47:33;;;;;;;12.93;4.53;;;;;;;;;;5054892;28;20410;-63
2021/09/24 06:50:18;;;;;;;11.57;4.05;;;;;;;;;;5080387;28;20052;-63
2021/09/24 06:53:03;;;;;;;12.40;4.05;;;;;;;;;;5111941;28;20048;-63
2021/09/24 06:55:48;;;;;;;17.10;4.07;;;;;;;;;;5113161;28;20047;-63
2021/09/24 06:58:35;;;;;;;13.45;3.90;;;;;;;;;;5113103;28;20127;-63
2021/09/24 07:01:21;;;;;;;10.95;3.63;;;;;;;;;;5107655;28;20049;-63
2021/09/24 07:04:06;;;;;;;12.13;4.13;;;;;;;;;;5112703;28;20501;-63
2021/09/24 07:06:51;;;;;;;12.18;3.90;;;;;;;;;;5113004;28;20056;-63
2021/09/24 07:09:37;;;;;;;14.43;3.60;;;;;;;;;;5112924;28;20051;-62
2021/09/24 07:12:22;;;;;;;14.27;4.50;;;;;;;;;;5110390;28;20126;-62
2021/09/24 07:15:08;;;;;;;7.65;3.83;;;;;;;;;;5106912;28;20470;-63
2021/09/24 07:17:53;;;;;;;12.40;3.75;;;;;;;;;;5090071;28;20044;-63
2021/09/24 07:20:39;;;;;;;10.88;3.60;;;;;;;;;;5091177;28;20559;-63
2021/09/24 07:23:24;;;;;;;10.13;3.70;;;;;;;;;;5091438;28;20514;-62
2021/09/24 07:26:09;;;;;;;8.80;3.28;;;;;;;;;;5089473;28;20055;-63
2021/09/24 07:28:55;;;;;;;9.30;3.65;;;;;;;;;;5090331;28;20067;-63
2021/09/24 07:31:40;;;;;;;9.52;3.45;;;;;;;;;;5091235;28;20095;-63
2021/09/24 07:34:26;;;;;;;11.77;3.80;;;;;;;;;;5088603;28;20044;-62
2021/09/24 07:37:12;;;;;;;9.95;3.78;;;;;;;;;;5092156;28;20048;-63
2021/09/24 07:39:57;;;;;;;12.68;4.05;;;;;;;;;;5092065;28;20052;-62
2021/09/24 07:42:42;;;;;;;10.77;4.03;;;;;;;;;;5099046;28;20412;-63
2021/09/24 07:45:28;;;;;;;15.43;4.30;;;;;;;;;;5091052;28;20048;-64
2021/09/24 07:48:13;;;;;;;13.65;3.88;;;;;;;;;;5093298;28;20119;-64
2021/09/24 07:50:58;;;;;;;11.35;4.18;;;;;;;;;;5092753;28;20052;-64
2021/09/24 07:53:44;;;;;;;12.02;4.05;;;;;;;;;;5092304;28;20119;-64
2021/09/24 07:56:29;;;;;;;10.68;4.38;;;;;;;;;;5091858;28;20173;-64
2021/09/24 07:59:15;;;;;;;11.38;3.88;;;;;;;;;;5092961;28;20049;-64
2021/09/24 08:02:00;;;;;;;13.55;4.18;;;;;;;;;;5094586;28;20048;-64
2021/09/24 08:04:45;;;;;;;10.57;3.60;;;;;;;;;;5113356;28;20059;-64
2021/09/24 08:07:31;;;;;;;9.68;4.20;;;;;;;;;;5114240;28;20076;-63
2021/09/24 08:10:17;;;;;;;9.95;3.67;;;;;;;;;;5112148;28;20493;-63
2021/09/24 08:13:03;;;;;;;8.52;4.18;;;;;;;;;;5110388;28;20052;-63
2021/09/24 08:15:49;;;;;;;12.35;4.15;;;;;;;;;;5112013;28;20047;-63
2021/09/24 08:18:34;;;;;;;9.50;3.33;;;;;;;;;;5112278;28;20083;-63
2021/09/24 08:21:22;;;;;;;11.15;3.88;;;;;;;;;;5112097;28;20052;-62
2021/09/24 08:24:07;;;;;;;9.75;3.90;;;;;;;;;;5110010;28;20056;-63
2021/09/24 08:26:52;;;;;;;9.85;3.75;;;;;;;;;;5112095;28;20051;-63
2021/09/24 08:29:38;;;;;;;10.48;4.28;;;;;;;;;;5112151;28;20047;-63
2021/09/24 08:32:23;;;;;;;9.02;3.60;;;;;;;;;;5112031;28;20463;-63
2021/09/24 08:35:09;;;;;;;9.23;3.72;;;;;;;;;;5110018;28;20055;-63
2021/09/24 08:37:54;;;;;;;11.95;4.15;;;;;;;;;;5112131;28;20083;-64
2021/09/24 08:40:40;;;;;;;11.02;4.05;;;;;;;;;;5113854;28;20055;-64
2021/09/24 08:43:25;;;;;;;10.45;4.60;;;;;;;;;;5113501;28;20052;-63
2021/09/24 08:46:10;;;;;;;8.35;4.18;;;;;;;;;;5113955;28;20052;-63
2021/09/24 08:48:56;;;;;;;14.52;5.07;;;;;;;;;;5101758;28;20060;-63
2021/09/24 08:51:41;;;;;;;10.93;4.15;;;;;;;;;;5115451;28;20055;-62
2021/09/24 08:54:26;;;;;;;11.77;4.85;;;;;;;;;;5113592;28;20056;-63
2021/09/24 08:57:12;;;;;;;13.70;6.05;;;;;;;;;;5115501;28;20047;-62
2021/09/24 08:59:57;;;;;;;9.52;5.35;;;;;;;;;;5115285;28;20051;-62
2021/09/24 09:02:52;;;;;;;14.57;5.53;;;;;;;;;;5115279;28;20494;-63
2021/09/24 09:06:06;;;;;;;9.98;5.10;;;;;;;;;;5113506;28;20248;-64
2021/09/24 09:08:53;;;;;;;10.88;5.07;;;;;;;;;;5110166;28;20043;-63
2021/09/24 09:11:38;;;;;;;10.80;6.15;;;;;;;;;;5117479;28;20052;-64
2021/09/24 09:14:23;;;;;;;17.65;5.88;;;;;;;;;;5116623;28;20569;-63
2021/09/24 09:17:27;;;;;;;15.70;6.43;;;;;;;;;;5098551;28;20047;-64
2021/09/24 09:20:17;;;;;;;11.52;5.85;;;;;;;;;;5116302;28;20071;-64
2021/09/24 09:23:02;;;;;;;8.45;5.82;;;;;;;;;;5115270;28;20498;-63
2021/09/24 09:25:49;;;;;;;11.27;6.00;;;;;;;;;;5112952;28;20043;-62
2021/09/24 09:28:34;;;;;;;11.88;6.95;;;;;;;;;;5114802;28;20432;-63
2021/09/24 09:31:24;;;;;;;13.57;7.10;;;;;;;;;;5112235;28;20051;-62
2021/09/24 09:34:10;;;;;;;13.52;6.70;;;;;;;;;;5114577;28;20052;-63
2021/09/24 09:36:55;;;;;;;13.43;6.95;;;;;;;;;;5114629;28;20088;-65
2021/09/24 09:39:40;;;;;;;12.60;6.75;;;;;;;;;;5115340;28;20059;-64
2021/09/24 09:42:32;;;;;;;11.60;6.82;;;;;;;;;;5113647;28;20044;-64
2021/09/24 09:45:17;;;;;;;13.32;7.18;;;;;;;;;;5114880;28;20056;-63
2021/09/24 09:48:02;;;;;;;12.90;6.60;;;;;;;;;;5115173;28;20409;-63
2021/09/24 09:50:48;;;;;;;10.98;7.20;;;;;;;;;;5113214;28;20529;-63
2021/09/24 09:53:33;;;;;;;14.40;7.45;;;;;;;;;;5114636;28;20048;-64
2021/09/24 09:56:19;;;;;;;11.60;7.00;;;;;;;;;;5114567;28;20505;-64
2021/09/24 09:59:21;;;;;;;11.90;7.25;;;;;;;;;;5113732;28;20047;-64
2021/09/24 10:02:06;;;;;;;;;;;;;;;;;;5112876;28;20498;-63
2021/09/24 10:04:52;;;;;;;12.38;6.75;;;;;;;;;;5114201;28;19923;-64
2021/09/24 10:07:38;;;;;;;10.52;6.88;;;;;;;;;;5114403;28;20047;-64
2021/09/24 10:10:23;;;;;;;11.00;7.22;;;;;;;;;;5114118;28;20048;-68
2021/09/24 10:13:11;;;;;;;12.80;7.63;;;;;;;;;;5093744;28;20055;-67
2021/09/24 10:15:56;;;;;;;12.50;8.35;;;;;;;;;;5114046;28;20048;-67
2021/09/24 10:18:42;;;;;;;15.35;8.02;;;;;;;;;;5113355;28;20051;-68
2021/09/24 10:21:27;;;;;;;14.93;8.13;;;;;;;;;;5113509;28;20515;-67
2021/09/24 10:24:13;;;;;;;18.63;9.65;;;;;;;;;;5098104;28;20048;-67
2021/09/24 10:27:02;;;;;;;14.20;8.35;;;;;;;;;;5113153;28;20073;-67
2021/09/24 10:29:47;;;;;;;13.23;8.45;;;;;;;;;;5097768;28;20051;-67
2021/09/24 10:32:33;;;;;;;20.75;10.05;;;;;;;;;;5093727;28;20084;-66
2021/09/24 10:35:18;;;;;;;13.45;9.10;;;;;;;;;;5113235;28;20039;-67
2021/09/24 10:38:09;;;;;;;15.77;9.85;;;;;;;;;;5090090;28;20122;-67
2021/09/24 10:40:54;;;;;;;16.38;10.02;;;;;;;;;;5093110;28;20048;-67
2021/09/24 10:43:49;;;;;;;16.73;10.02;;;;;;;;;;5091661;28;20517;-68
2021/09/24 10:46:37;;;;;;;18.98;11.55;;;;;;;;;;5090620;28;20056;-67
2021/09/24 10:49:23;;;;;;;17.98;10.68;;;;;;;;;;5092281;28;20052;-68
2021/09/24 10:52:09;;;;;;;20.75;11.38;;;;;;;;;;5090403;28;20055;-67
2021/09/24 10:54:56;;;;;;;16.92;10.32;;;;;;;;;;5092710;28;20127;-67
2021/09/24 10:57:52;;;;;;;16.55;11.00;;;;;;;;;;5109350;28;20682;-68
2021/09/24 11:00:37;;;;;;;17.70;10.57;;;;;;;;;;5098950;28;20048;-67
2021/09/24 11:03:23;;;;;;;18.90;9.60;;;;;;;;;;5091454;28;20044;-68
2021/09/24 11:06:09;;;;;;;17.05;9.48;;;;;;;;;;5091985;28;20043;-67
2021/09/24 11:08:55;;;;;;;16.80;10.20;;;;;;;;;;5081126;28;20494;-67
2021/09/24 11:11:41;;;;;;;19.90;10.25;;;;;;;;;;5082928;28;20122;-67
2021/09/24 11:14:28;;;;;;;12.55;7.40;;;;;;;;;;5092341;28;20048;-68
2021/09/24 11:17:14;;;;;;;12.20;8.10;;;;;;;;;;5099124;28;20048;-67
2021/09/24 11:19:59;;;;;;;11.70;7.45;;;;;;;;;;5112818;28;20056;-67
2021/09/24 11:22:45;;;;;;;12.35;6.82;;;;;;;;;;5095899;28;20051;-67
2021/09/24 11:25:30;;;;;;;11.70;7.32;;;;;;;;;;5085372;28;20123;-67
2021/09/24 11:28:32;;;;;;;8.50;6.28;;;;;;;;;;5092226;28;20052;-68
2021/09/24 11:31:17;;;;;;;12.75;6.18;;;;;;;;;;5089197;28;20118;-68
2021/09/24 11:34:03;;;;;;;9.32;4.95;;;;;;;;;;5089453;28;20040;-68
2021/09/24 11:36:58;;;;;;;8.75;4.10;;;;;;;;;;5090768;28;20048;-69
2021/09/24 11:39:43;;;;;;;8.02;3.28;;;;;;;;;;5120666;22;20508;-72
2021/09/24 11:42:30;;;;;;;9.48;3.22;;;;;;;;;;5094218;28;20085;-71
2021/09/24 11:45:22;;;;;;;6.53;2.40;;;;;;;;;;5112293;28;20122;-71
2021/09/24 11:48:09;;;;;;;9.23;3.00;;;;;;;;;;5097897;28;20059;-71
2021/09/24 11:50:54;;;;;;;7.53;2.55;;;;;;;;;;5127646;28;20745;-71
2021/09/24 11:53:51;;;;;;;7.05;2.58;;;;;;;;;;5091796;28;20052;-71
2021/09/24 11:56:37;;;;;;;5.78;2.55;;;;;;;;;;5073885;28;20052;-72
2021/09/24 11:59:23;;;;;;;6.32;2.67;;;;;;;;;;5073777;28;20051;-71
2021/09/24 12:02:08;;;;;;;8.40;3.08;;;;;;;;;;5098123;28;20051;-71
2021/09/24 12:05:00;;;;;;;12.52;3.90;;;;;;;;;;5100155;28;20047;-72
2021/09/24 12:07:51;;;;;;;7.82;3.50;;;;;;;;;;5100050;28;20082;-72
2021/09/24 12:10:37;;;;;;;7.88;3.58;;;;;;;;;;5096977;28;20056;-73
2021/09/24 12:13:22;;;;;;;7.40;3.92;;;;;;;;;;5114459;28;20059;-72
2021/09/24 12:16:07;;;;;;;9.32;3.78;;;;;;;;;;5114289;28;20051;-72
2021/09/24 12:18:59;;;;;;;6.57;3.70;;;;;;;;;;5099996;28;20055;-72
2021/09/24 12:21:50;;;;;;;5.65;3.50;;;;;;;;;;5112568;27;20051;-72
2021/09/24 12:24:39;;;;;;;10.90;4.13;;;;;;;;;;5118001;27;20055;-71
2021/09/24 12:27:30;;;;;;;8.40;4.15;;;;;;;;;;5118167;27;20051;-71
2021/09/24 12:30:16;;;;;;;11.65;3.60;;;;;;;;;;5136633;27;20106;-71
2021/09/24 12:33:10;;;;;;;9.77;3.58;;;;;;;;;;5119564;27;20429;-71
2021/09/24 12:36:02;;;;;;;13.25;4.78;;;;;;;;;;5118345;27;20474;-70
2021/09/24 12:38:49;;;;;;;7.45;3.45;;;;;;;;;;5117705;27;20055;-71
2021/09/24 12:41:37;;;;;;;7.72;3.80;;;;;;;;;;5116258;27;20055;-71
2021/09/24 12:44:22;;;;;;;19.80;4.25;;;;;;;;;;5117576;27;20450;-71
2021/09/24 12:47:08;;;;;;;5.50;3.15;;;;;;;;;;5103446;27;20121;-71
2021/09/24 12:49:53;;;;;;;6.10;3.45;;;;;;;;;;5117636;27;20047;-69
2021/09/24 12:52:39;;;;;;;12.02;3.47;;;;;;;;;;5116042;27;20481;-69
2021/09/24 12:55:24;;;;;;;7.22;3.53;;;;;;;;;;5117213;27;20087;-69
2021/09/24 12:58:09;;;;;;;6.32;4.00;;;;;;;;;;5135980;27;20496;-69
2021/09/24 13:00:54;;;;;;;9.75;4.00;;;;;;;;;;5103517;27;20051;-69
2021/09/24 13:03:43;;;;;;;11.15;3.45;;;;;;;;;;5101008;27;20493;-69
2021/09/24 13:06:28;;;;;;;6.18;3.38;;;;;;;;;;5117428;27;20055;-69
2021/09/24 13:09:13;;;;;;;8.75;3.13;;;;;;;;;;5117227;27;20055;-69
2021/09/24 13:11:59;;;;;;;9.95;2.75;;;;;;;;;;5135761;27;20408;-69
2021/09/24 13:14:44;;;;;;;7.88;3.53;;;;;;;;;;5116095;27;20051;-69
2021/09/24 13:17:29;;;;;;;6.07;3.05;;;;;;;;;;5117229;27;20051;-70
2021/09/24 13:20:14;;;;;;;10.95;3.10;;;;;;;;;;5117062;27;20055;-69
2021/09/24 13:23:00;;;;;;;8.38;3.75;;;;;;;;;;5113771;27;20055;-70
2021/09/24 13:25:45;;;;;;;9.38;3.13;;;;;;;;;;5096480;28;20059;-70
2021/09/24 13:28:30;;;;;;;7.72;3.72;;;;;;;;;;5096517;28;20047;-70
2021/09/24 13:31:15;;;;;;;8.20;3.40;;;;;;;;;;5096522;28;20056;-70
2021/09/24 13:34:00;;;;;;;6.45;3.17;;;;;;;;;;5102998;27;20051;-70
2021/09/24 13:36:45;;;;;;;8.80;3.28;;;;;;;;;;5102865;27;20051;-70
2021/09/24 13:39:31;;;;;;;6.57;2.90;;;;;;;;;;5116907;27;20091;-70
2021/09/24 13:42:16;;;;;;;8.50;3.40;;;;;;;;;;5135217;27;20063;-70
2021/09/24 13:45:02;;;;;;;8.18;2.60;;;;;;;;;;5114626;27;20492;-70
2021/09/24 13:47:46;;;;;;;5.18;2.83;;;;;;;;;;5134991;27;20047;-70
2021/09/24 13:50:32;;;;;;;9.07;3.55;;;;;;;;;;5135130;27;20047;-70
2021/09/24 13:53:17;;;;;;;6.55;3.00;;;;;;;;;;5102515;27;20438;-70
2021/09/24 13:56:02;;;;;;;10.90;5.20;;;;;;;;;;5114982;27;20047;-70
2021/09/24 13:58:47;;;;;;;5.90;2.95;;;;;;;;;;5116572;27;20055;-69
2021/09/24 14:01:32;;;;;;;6.80;3.35;;;;;;;;;;5134882;27;20602;-69
2021/09/24 14:04:18;;;;;;;6.80;2.92;;;;;;;;;;5114549;27;20158;-69
2021/09/24 14:07:03;;;;;;;6.35;2.72;;;;;;;;;;5116234;27;20134;-69
2021/09/24 14:09:48;;;;;;;6.43;3.08;;;;;;;;;;5116147;27;20054;-69
2021/09/24 14:12:34;;;;;;;6.40;3.25;;;;;;;;;;5116074;27;20051;-69
2021/09/24 14:15:19;;;;;;;5.90;3.17;;;;;;;;;;5132637;27;20080;-69
2021/09/24 14:18:04;;;;;;;8.27;3.85;;;;;;;;;;5134467;27;20047;-69
2021/09/24 14:20:50;;;;;;;7.00;3.63;;;;;;;;;;5115955;27;20051;-69
2021/09/24 14:23:35;;;;;;;7.03;3.40;;;;;;;;;;5115658;27;20056;-69
2021/09/24 14:26:20;;;;;;;8.40;3.25;;;;;;;;;;5114378;27;20073;-69
2021/09/24 14:29:05;;;;;;;6.18;3.50;;;;;;;;;;5115722;27;20055;-69
2021/09/24 14:31:50;;;;;;;8.50;3.95;;;;;;;;;;5132648;27;20509;-68
2021/09/24 14:34:35;;;;;;;6.13;3.33;;;;;;;;;;5102414;28;20048;-69
2021/09/24 14:37:21;;;;;;;7.30;3.85;;;;;;;;;;5118924;27;20052;-69
2021/09/24 14:40:07;;;;;;;6.18;3.08;;;;;;;;;;5095102;28;20084;-69
2021/09/24 14:42:53;;;;;;;8.40;2.65;;;;;;;;;;5095115;28;20048;-70
2021/09/24 14:45:38;;;;;;;6.82;1.88;;;;;;;;;;5095411;27;20051;-69
2021/09/24 14:48:23;;;;;;;8.88;1.73;;;;;;;;;;5115434;27;20050;-69
2021/09/24 14:51:08;;;;;;;2.13;1.50;;;;;;;;;;5115131;27;20055;-69
2021/09/24 14:53:53;;;;;;;3.25;1.45;;;;;;;;;;5108226;28;20055;-69
2021/09/24 14:56:38;;;;;;;6.75;1.83;;;;;;;;;;5113459;27;20055;-69
2021/09/24 14:59:24;;;;;;;6.85;1.67;;;;;;;;;;5099650;28;20085;-69
2021/09/24 15:02:11;;;;;;;3.33;1.27;;;;;;;;;;5099233;28;20402;-69
2021/09/24 15:04:57;;;;;;;5.75;1.20;;;;;;;;;;5104429;28;20044;-69
2021/09/24 15:07:41;;;;;;;4.35;1.60;;;;;;;;;;5096405;28;20055;-70
2021/09/24 15:10:27;;;;;;;3.90;1.75;;;;;;;;;;5104842;28;20059;-69
2021/09/24 15:13:12;;;;;;;3.80;1.48;;;;;;;;;;5111199;28;20059;-69
2021/09/24 15:15:57;;;;;;;4.68;1.33;;;;;;;;;;5110826;28;20056;-70
2021/09/24 15:18:42;;;;;;;5.47;1.30;;;;;;;;;;5092389;28;20482;-69
2021/09/24 15:21:27;;;;;;;7.15;1.40;;;;;;;;;;5074158;28;20056;-70
2021/09/24 15:24:12;;;;;;;9.25;1.20;;;;;;;;;;5092132;28;20432;-69
2021/09/24 15:26:57;;;;;;;4.80;1.63;;;;;;;;;;5082673;27;20059;-70
2021/09/24 15:29:43;;;;;;;9.23;1.83;;;;;;;;;;5100397;27;20051;-70
2021/09/24 15:32:28;;;;;;;5.53;1.75;;;;;;;;;;5114656;27;20051;-69
2021/09/24 15:35:13;;;;;;;4.28;1.50;;;;;;;;;;5114293;28;20488;-70
2021/09/24 15:37:58;;;;;;;5.97;1.80;;;;;;;;;;5112111;27;20059;-70
2021/09/24 15:40:43;;;;;;;4.65;1.27;;;;;;;;;;5114536;27;20047;-70
2021/09/24 15:43:29;;;;;;;4.18;1.30;;;;;;;;;;5100628;28;20047;-70
2021/09/24 15:46:16;;;;;;;3.90;1.50;;;;;;;;;;5100327;28;20060;-70
2021/09/24 15:49:01;;;;;;;10.32;2.40;;;;;;;;;;5088908;28;20059;-69
2021/09/24 15:51:47;;;;;;;5.45;1.30;;;;;;;;;;5113406;28;20051;-70
2021/09/24 15:54:32;;;;;;;4.55;1.85;;;;;;;;;;5132453;28;20043;-69
2021/09/24 15:57:17;;;;;;;2.10;1.02;;;;;;;;;;5115332;27;20051;-69
2021/09/24 16:00:02;;;;;;;6.25;1.45;;;;;;;;;;5134837;27;20485;-70
2021/09/24 16:02:57;;;;;;;3.75;1.10;;;;;;;;;;5118740;27;20540;-69
2021/09/24 16:05:42;;;;;;;5.10;1.35;;;;;;;;;;5118317;27;20055;-70
2021/09/24 16:08:27;;;;;;;5.55;1.38;;;;;;;;;;5116876;27;20118;-70
2021/09/24 16:11:12;;;;;;;4.38;1.20;;;;;;;;;;5118433;27;20055;-70
2021/09/24 16:13:57;;;;;;;4.60;0.90;;;;;;;;;;5118186;27;20058;-69
2021/09/24 16:16:42;;;;;;;8.20;1.65;;;;;;;;;;5136823;27;20489;-69
2021/09/24 16:19:30;;;;;;;5.10;1.35;;;;;;;;;;5114660;27;20042;-69
2021/09/24 16:22:16;;;;;;;3.63;1.30;;;;;;;;;;5118294;27;20047;-71
2021/09/24 16:25:01;;;;;;;2.45;1.40;;;;;;;;;;5117975;27;20086;-71